Terminal Aerodrome Forecast
Issued by NWS

Home | Current Version | Previous Version | Text Only | Print | Product List | Glossary On
Versions: 1 2 3 4 5 6 7 8 9 10 11 12 13 14 15 16 17 18 19 20 21 22 23 24 25 26 27 28 29 30 31 32 33 34 35 36 37 38 39 40 41 42 43
654
FTUS41 KOKX 201732
TAFGON
TAF
KGON 201732Z 2018/2118 VRB05KT P6SM OVC025
     FM202300 14004KT 6SM BR OVC020
     FM210100 18004KT 3SM -RA BR OVC010
     FM210300 22004KT 2SM -RA BR OVC006
     FM210800 VRB03KT 2SM BR OVC005
     FM211600 25005KT 3SM BR OVC012=

USA.gov is the U.S. government's official web portal to all federal, state and local government web resources and services.